sensor_id;sensor_type;location;lat;lon;timestamp;pressure;altitude;pressure_sealevel;temperature;humidity
15884;BME280;8040;50.254;10.960;2022-07-10T00:01:51;98823.50;;;17.58;60.21
15884;BME280;8040;50.254;10.960;2022-07-10T00:04:35;98819.03;;;17.53;60.27
15884;BME280;8040;50.254;10.960;2022-07-10T00:07:19;98832.78;;;17.45;60.14
15884;BME280;8040;50.254;10.960;2022-07-10T00:10:03;98839.25;;;17.40;60.15
15884;BME280;8040;50.254;10.960;2022-07-10T00:12:48;98833.09;;;17.35;59.97
15884;BME280;8040;50.254;10.960;2022-07-10T00:15:32;98840.25;;;17.27;59.71
15884;BME280;8040;50.254;10.960;2022-07-10T00:18:17;98834.28;;;17.25;59.67
15884;BME280;8040;50.254;10.960;2022-07-10T00:21:01;98832.66;;;17.24;59.22
15884;BME280;8040;50.254;10.960;2022-07-10T00:23:45;98833.66;;;17.20;59.26
15884;BME280;8040;50.254;10.960;2022-07-10T00:26:29;98835.13;;;17.17;59.15
15884;BME280;8040;50.254;10.960;2022-07-10T00:29:13;98837.53;;;17.19;59.60
15884;BME280;8040;50.254;10.960;2022-07-10T00:32:17;98840.75;;;17.12;59.56
15884;BME280;8040;50.254;10.960;2022-07-10T00:35:01;98836.75;;;17.10;60.09
15884;BME280;8040;50.254;10.960;2022-07-10T00:37:46;98838.19;;;17.07;59.51
15884;BME280;8040;50.254;10.960;2022-07-10T00:40:30;98834.66;;;17.07;60.01
15884;BME280;8040;50.254;10.960;2022-07-10T00:46:46;98826.16;;;16.91;59.61
15884;BME280;8040;50.254;10.960;2022-07-10T00:49:31;98824.88;;;16.89;59.23
15884;BME280;8040;50.254;10.960;2022-07-10T00:52:17;98832.28;;;16.88;58.92
15884;BME280;8040;50.254;10.960;2022-07-10T00:55:01;98831.50;;;16.88;59.09
15884;BME280;8040;50.254;10.960;2022-07-10T01:01:03;98830.06;;;16.82;58.90
15884;BME280;8040;50.254;10.960;2022-07-10T01:03:48;98832.66;;;16.78;58.22
15884;BME280;8040;50.254;10.960;2022-07-10T01:06:32;98828.28;;;16.77;58.73
15884;BME280;8040;50.254;10.960;2022-07-10T01:09:16;98835.56;;;16.73;58.43
15884;BME280;8040;50.254;10.960;2022-07-10T01:12:01;98824.75;;;16.68;58.82
15884;BME280;8040;50.254;10.960;2022-07-10T01:14:47;98839.09;;;16.65;59.46
15884;BME280;8040;50.254;10.960;2022-07-10T01:17:40;98835.09;;;16.63;59.67
15884;BME280;8040;50.254;10.960;2022-07-10T01:20:29;98839.28;;;16.60;60.15
15884;BME280;8040;50.254;10.960;2022-07-10T01:23:13;98832.84;;;16.56;59.86
15884;BME280;8040;50.254;10.960;2022-07-10T01:25:57;98826.22;;;16.49;59.02
15884;BME280;8040;50.254;10.960;2022-07-10T01:28:41;98819.63;;;16.41;59.33
15884;BME280;8040;50.254;10.960;2022-07-10T01:31:26;98812.53;;;16.40;59.59
15884;BME280;8040;50.254;10.960;2022-07-10T01:34:10;98814.94;;;16.33;59.39
15884;BME280;8040;50.254;10.960;2022-07-10T01:36:54;98813.47;;;16.27;59.72
15884;BME280;8040;50.254;10.960;2022-07-10T01:39:38;98817.34;;;16.26;60.13
15884;BME280;8040;50.254;10.960;2022-07-10T01:42:22;98819.28;;;16.26;60.39
15884;BME280;8040;50.254;10.960;2022-07-10T01:45:06;98823.81;;;16.22;61.08
15884;BME280;8040;50.254;10.960;2022-07-10T01:47:52;98819.28;;;16.17;60.89
15884;BME280;8040;50.254;10.960;2022-07-10T01:50:36;98813.31;;;16.15;60.76
15884;BME280;8040;50.254;10.960;2022-07-10T01:53:20;98820.59;;;16.12;61.08
15884;BME280;8040;50.254;10.960;2022-07-10T01:56:05;98825.88;;;16.08;61.08
15884;BME280;8040;50.254;10.960;2022-07-10T01:58:49;98821.03;;;16.05;61.49
15884;BME280;8040;50.254;10.960;2022-07-10T02:01:33;98824.25;;;15.98;61.46
15884;BME280;8040;50.254;10.960;2022-07-10T02:04:17;98810.91;;;15.89;61.58
15884;BME280;8040;50.254;10.960;2022-07-10T02:07:20;98833.41;;;15.86;61.66
15884;BME280;8040;50.254;10.960;2022-07-10T02:13:47;98822.63;;;15.72;62.39
15884;BME280;8040;50.254;10.960;2022-07-10T02:16:31;98827.59;;;15.70;62.73
15884;BME280;8040;50.254;10.960;2022-07-10T02:19:15;98830.00;;;15.72;62.93
15884;BME280;8040;50.254;10.960;2022-07-10T02:22:00;98822.09;;;15.62;62.10
15884;BME280;8040;50.254;10.960;2022-07-10T02:24:48;98822.25;;;15.65;62.80
15884;BME280;8040;50.254;10.960;2022-07-10T02:27:32;98826.28;;;15.68;63.06
15884;BME280;8040;50.254;10.960;2022-07-10T02:30:16;98825.81;;;15.66;62.60
15884;BME280;8040;50.254;10.960;2022-07-10T02:33:00;98829.66;;;15.65;63.07
15884;BME280;8040;50.254;10.960;2022-07-10T02:35:45;98836.59;;;15.71;62.94
15884;BME280;8040;50.254;10.960;2022-07-10T02:38:28;98824.84;;;15.70;62.93
15884;BME280;8040;50.254;10.960;2022-07-10T02:41:13;98828.88;;;15.73;62.43
15884;BME280;8040;50.254;10.960;2022-07-10T02:44:03;98828.88;;;15.73;62.39
15884;BME280;8040;50.254;10.960;2022-07-10T02:46:47;98837.91;;;15.73;62.66
15884;BME280;8040;50.254;10.960;2022-07-10T02:49:32;98826.00;;;15.78;63.17
15884;BME280;8040;50.254;10.960;2022-07-10T02:52:17;98819.09;;;15.80;62.88
15884;BME280;8040;50.254;10.960;2022-07-10T02:55:01;98822.59;;;15.81;63.43
15884;BME280;8040;50.254;10.960;2022-07-10T02:57:45;98825.34;;;15.81;63.34
15884;BME280;8040;50.254;10.960;2022-07-10T03:00:44;98809.75;;;15.81;63.27
15884;BME280;8040;50.254;10.960;2022-07-10T03:03:35;98812.00;;;15.79;62.34
15884;BME280;8040;50.254;10.960;2022-07-10T03:06:19;98819.41;;;15.79;62.27
15884;BME280;8040;50.254;10.960;2022-07-10T03:09:03;98817.31;;;15.76;62.10
15884;BME280;8040;50.254;10.960;2022-07-10T03:11:47;98824.38;;;15.77;62.12
15884;BME280;8040;50.254;10.960;2022-07-10T03:14:31;98822.13;;;15.79;62.87
15884;BME280;8040;50.254;10.960;2022-07-10T03:17:19;98809.41;;;15.74;62.90
15884;BME280;8040;50.254;10.960;2022-07-10T03:20:06;98820.84;;;15.85;62.88
15884;BME280;8040;50.254;10.960;2022-07-10T03:22:51;98805.88;;;15.82;62.16
15884;BME280;8040;50.254;10.960;2022-07-10T03:25:35;98799.28;;;15.83;62.46
15884;BME280;8040;50.254;10.960;2022-07-10T03:28:19;98814.59;;;15.84;62.75
15884;BME280;8040;50.254;10.960;2022-07-10T03:31:02;98806.69;;;15.83;62.16
15884;BME280;8040;50.254;10.960;2022-07-10T03:33:47;98798.97;;;15.85;62.52
15884;BME280;8040;50.254;10.960;2022-07-10T03:36:30;98801.72;;;15.85;62.38
15884;BME280;8040;50.254;10.960;2022-07-10T03:39:14;98792.88;;;15.88;62.31
15884;BME280;8040;50.254;10.960;2022-07-10T03:41:58;98784.00;;;15.82;62.14
15884;BME280;8040;50.254;10.960;2022-07-10T03:48:04;98799.28;;;15.92;62.02
15884;BME280;8040;50.254;10.960;2022-07-10T03:50:51;98812.34;;;15.95;61.63
15884;BME280;8040;50.254;10.960;2022-07-10T03:53:36;98810.75;;;15.94;61.98
15884;BME280;8040;50.254;10.960;2022-07-10T03:56:21;98810.09;;;15.97;61.72
15884;BME280;8040;50.254;10.960;2022-07-10T03:59:24;98814.13;;;15.99;61.48
15884;BME280;8040;50.254;10.960;2022-07-10T04:02:08;98809.63;;;15.95;60.50
15884;BME280;8040;50.254;10.960;2022-07-10T04:04:52;98812.81;;;15.97;60.52
15884;BME280;8040;50.254;10.960;2022-07-10T04:07:36;98816.41;;;16.06;61.07
15884;BME280;8040;50.254;10.960;2022-07-10T04:10:20;98820.59;;;16.12;60.80
15884;BME280;8040;50.254;10.960;2022-07-10T04:13:04;98824.09;;;16.12;59.96
15884;BME280;8040;50.254;10.960;2022-07-10T04:15:48;98823.94;;;16.17;59.89
15884;BME280;8040;50.254;10.960;2022-07-10T04:18:32;98810.09;;;16.13;59.11
15884;BME280;8040;50.254;10.960;2022-07-10T04:21:17;98809.78;;;16.07;58.76
15884;BME280;8040;50.254;10.960;2022-07-10T04:24:01;98803.84;;;15.96;58.72
15884;BME280;8040;50.254;10.960;2022-07-10T04:26:47;98817.69;;;16.00;59.17
15884;BME280;8040;50.254;10.960;2022-07-10T04:29:31;98818.78;;;15.98;59.77
15884;BME280;8040;50.254;10.960;2022-07-10T04:32:15;98822.63;;;15.98;60.18
15884;BME280;8040;50.254;10.960;2022-07-10T04:34:59;98828.25;;;15.93;59.91
15884;BME280;8040;50.254;10.960;2022-07-10T04:37:44;98837.59;;;15.92;59.94
15884;BME280;8040;50.254;10.960;2022-07-10T04:40:28;98829.25;;;15.97;59.65
15884;BME280;8040;50.254;10.960;2022-07-10T04:43:13;98832.47;;;16.07;59.90
15884;BME280;8040;50.254;10.960;2022-07-10T04:45:57;98825.06;;;16.08;59.22
15884;BME280;8040;50.254;10.960;2022-07-10T04:48:46;98839.72;;;16.28;59.19
15884;BME280;8040;50.254;10.960;2022-07-10T04:54:48;98820.97;;;17.44;55.58
15884;BME280;8040;50.254;10.960;2022-07-10T04:57:32;98819.81;;;17.54;55.20
15884;BME280;8040;50.254;10.960;2022-07-10T05:00:16;98819.19;;;17.48;54.68
15884;BME280;8040;50.254;10.960;2022-07-10T05:03:00;98822.31;;;17.38;54.63
15884;BME280;8040;50.254;10.960;2022-07-10T05:05:44;98830.06;;;17.28;55.57
15884;BME280;8040;50.254;10.960;2022-07-10T05:08:34;98826.41;;;17.15;54.34
15884;BME280;8040;50.254;10.960;2022-07-10T05:11:24;98821.44;;;17.00;52.78
15884;BME280;8040;50.254;10.960;2022-07-10T05:14:09;98827.41;;;17.02;52.77
15884;BME280;8040;50.254;10.960;2022-07-10T05:16:53;98827.72;;;17.55;50.14
15884;BME280;8040;50.254;10.960;2022-07-10T05:19:37;98826.28;;;18.28;47.87
15884;BME280;8040;50.254;10.960;2022-07-10T05:22:21;98819.47;;;18.66;46.97
15884;BME280;8040;50.254;10.960;2022-07-10T05:25:05;98828.22;;;18.68;46.98
15884;BME280;8040;50.254;10.960;2022-07-10T05:27:49;98824.94;;;18.54;46.35
15884;BME280;8040;50.254;10.960;2022-07-10T05:30:33;98827.63;;;19.07;45.27
15884;BME280;8040;50.254;10.960;2022-07-10T05:33:20;98841.59;;;19.35;44.60
15884;BME280;8040;50.254;10.960;2022-07-10T05:36:05;98848.88;;;19.19;44.96
15884;BME280;8040;50.254;10.960;2022-07-10T05:38:50;98839.84;;;18.86;45.19
15884;BME280;8040;50.254;10.960;2022-07-10T05:41:34;98837.28;;;18.48;45.12
15884;BME280;8040;50.254;10.960;2022-07-10T05:44:18;98841.81;;;18.03;44.98
15884;BME280;8040;50.254;10.960;2022-07-10T05:47:03;98842.50;;;17.71;45.85
15884;BME280;8040;50.254;10.960;2022-07-10T05:49:47;98839.81;;;17.54;46.16
15884;BME280;8040;50.254;10.960;2022-07-10T05:52:31;98839.41;;;17.35;46.52
15884;BME280;8040;50.254;10.960;2022-07-10T05:55:15;98839.25;;;17.40;47.17
15884;BME280;8040;50.254;10.960;2022-07-10T05:57:59;98850.22;;;17.40;47.34
15884;BME280;8040;50.254;10.960;2022-07-10T06:00:43;98851.97;;;17.36;47.75
15884;BME280;8040;50.254;10.960;2022-07-10T06:03:28;98854.59;;;17.24;47.76
15884;BME280;8040;50.254;10.960;2022-07-10T06:06:12;98850.03;;;17.45;47.12
15884;BME280;8040;50.254;10.960;2022-07-10T06:09:00;98853.97;;;17.65;46.97
15884;BME280;8040;50.254;10.960;2022-07-10T06:11:44;98846.31;;;17.50;46.63
15884;BME280;8040;50.254;10.960;2022-07-10T06:14:31;98856.97;;;17.51;46.81
15884;BME280;8040;50.254;10.960;2022-07-10T06:17:15;98857.34;;;17.70;46.65
15884;BME280;8040;50.254;10.960;2022-07-10T06:19:59;98859.00;;;17.92;46.71
15884;BME280;8040;50.254;10.960;2022-07-10T06:22:43;98867.69;;;17.94;46.37
15884;BME280;8040;50.254;10.960;2022-07-10T06:25:27;98860.78;;;17.59;45.53
15884;BME280;8040;50.254;10.960;2022-07-10T06:28:11;98861.78;;;17.54;46.17
15884;BME280;8040;50.254;10.960;2022-07-10T06:30:55;98856.66;;;17.36;46.55
15884;BME280;8040;50.254;10.960;2022-07-10T06:33:58;98865.22;;;17.34;47.25
15884;BME280;8040;50.254;10.960;2022-07-10T06:37:01;98872.47;;;17.30;46.83
15884;BME280;8040;50.254;10.960;2022-07-10T06:39:46;98877.19;;;17.21;47.10
15884;BME280;8040;50.254;10.960;2022-07-10T06:42:31;98875.94;;;17.10;47.14
15884;BME280;8040;50.254;10.960;2022-07-10T06:45:15;98866.91;;;17.01;47.21
15884;BME280;8040;50.254;10.960;2022-07-10T06:47:59;98881.44;;;16.93;48.07
15884;BME280;8040;50.254;10.960;2022-07-10T06:50:43;98875.50;;;17.00;48.43
15884;BME280;8040;50.254;10.960;2022-07-10T06:53:27;98877.25;;;17.04;48.51
15884;BME280;8040;50.254;10.960;2022-07-10T06:59:14;98879.16;;;17.12;49.51
15884;BME280;8040;50.254;10.960;2022-07-10T07:05:25;98885.00;;;16.94;49.01
15884;BME280;8040;50.254;10.960;2022-07-10T07:08:09;98886.47;;;16.91;49.27
15884;BME280;8040;50.254;10.960;2022-07-10T07:10:53;98883.38;;;16.93;49.46
15884;BME280;8040;50.254;10.960;2022-07-10T07:13:37;98880.78;;;16.96;49.55
15884;BME280;8040;50.254;10.960;2022-07-10T07:16:21;98872.25;;;16.98;49.25
15884;BME280;8040;50.254;10.960;2022-07-10T07:19:11;98883.19;;;17.06;49.19
15884;BME280;8040;50.254;10.960;2022-07-10T07:22:00;98877.06;;;17.09;48.86
15884;BME280;8040;50.254;10.960;2022-07-10T07:25:03;98882.03;;;17.16;48.92
15884;BME280;8040;50.254;10.960;2022-07-10T07:27:47;98878.66;;;17.19;49.58
15884;BME280;8040;50.254;10.960;2022-07-10T07:30:32;98883.00;;;17.20;48.87
15884;BME280;8040;50.254;10.960;2022-07-10T07:33:16;98878.81;;;17.22;49.06
15884;BME280;8040;50.254;10.960;2022-07-10T07:36:00;98883.78;;;17.20;49.14
15884;BME280;8040;50.254;10.960;2022-07-10T07:38:44;98888.66;;;17.15;48.59
15884;BME280;8040;50.254;10.960;2022-07-10T07:44:37;98897.41;;;17.00;49.48
15884;BME280;8040;50.254;10.960;2022-07-10T07:47:21;98899.81;;;16.93;49.05
15884;BME280;8040;50.254;10.960;2022-07-10T07:50:05;98899.97;;;16.96;48.98
15884;BME280;8040;50.254;10.960;2022-07-10T07:52:50;98897.56;;;16.95;49.04
15884;BME280;8040;50.254;10.960;2022-07-10T07:55:34;98895.28;;;17.05;49.86
15884;BME280;8040;50.254;10.960;2022-07-10T07:58:19;98901.91;;;17.04;49.60
15884;BME280;8040;50.254;10.960;2022-07-10T08:01:13;98902.53;;;17.10;49.71
15884;BME280;8040;50.254;10.960;2022-07-10T08:04:12;98902.53;;;17.18;49.86
15884;BME280;8040;50.254;10.960;2022-07-10T08:06:56;98897.97;;;17.31;50.08
15884;BME280;8040;50.254;10.960;2022-07-10T08:09:40;98888.63;;;17.40;49.24
15884;BME280;8040;50.254;10.960;2022-07-10T08:12:24;98903.09;;;17.49;48.57
15884;BME280;8040;50.254;10.960;2022-07-10T08:15:12;98893.56;;;17.55;48.15
15884;BME280;8040;50.254;10.960;2022-07-10T08:17:56;98885.44;;;17.67;47.86
15884;BME280;8040;50.254;10.960;2022-07-10T08:20:40;98887.00;;;17.77;47.24
15884;BME280;8040;50.254;10.960;2022-07-10T08:26:34;98888.00;;;18.01;47.38
15884;BME280;8040;50.254;10.960;2022-07-10T08:29:19;98873.81;;;18.20;47.48
15884;BME280;8040;50.254;10.960;2022-07-10T08:32:04;98874.09;;;18.27;46.06
15884;BME280;8040;50.254;10.960;2022-07-10T08:34:49;98870.47;;;18.43;46.83
15884;BME280;8040;50.254;10.960;2022-07-10T08:37:36;98864.63;;;18.45;45.84
15884;BME280;8040;50.254;10.960;2022-07-10T08:40:22;98875.66;;;18.36;46.03
15884;BME280;8040;50.254;10.960;2022-07-10T08:43:06;98868.75;;;18.10;45.61
15884;BME280;8040;50.254;10.960;2022-07-10T08:45:51;98872.94;;;18.07;45.86
15884;BME280;8040;50.254;10.960;2022-07-10T08:48:37;98877.63;;;18.07;46.16
15884;BME280;8040;50.254;10.960;2022-07-10T08:51:24;98876.84;;;18.06;46.70
15884;BME280;8040;50.254;10.960;2022-07-10T08:54:09;98893.81;;;18.00;46.76
15884;BME280;8040;50.254;10.960;2022-07-10T08:56:58;98889.97;;;17.92;45.44
15884;BME280;8040;50.254;10.960;2022-07-10T08:59:42;98890.28;;;17.70;45.74
15884;BME280;8040;50.254;10.960;2022-07-10T09:02:26;98886.00;;;17.81;46.22
15884;BME280;8040;50.254;10.960;2022-07-10T09:05:10;98880.41;;;17.69;45.44
15884;BME280;8040;50.254;10.960;2022-07-10T09:07:54;98888.00;;;17.72;45.59
15884;BME280;8040;50.254;10.960;2022-07-10T09:10:40;98881.38;;;17.73;44.75
15884;BME280;8040;50.254;10.960;2022-07-10T09:16:31;98882.44;;;17.89;44.38
15884;BME280;8040;50.254;10.960;2022-07-10T09:22:20;98891.03;;;18.08;43.74
15884;BME280;8040;50.254;10.960;2022-07-10T09:25:11;98881.47;;;18.14;44.63
15884;BME280;8040;50.254;10.960;2022-07-10T09:27:58;98893.09;;;18.11;44.48
15884;BME280;8040;50.254;10.960;2022-07-10T09:30:43;98895.31;;;18.18;44.72
15884;BME280;8040;50.254;10.960;2022-07-10T09:33:28;98898.66;;;18.23;44.81
15884;BME280;8040;50.254;10.960;2022-07-10T09:36:15;98892.25;;;18.19;44.93
15884;BME280;8040;50.254;10.960;2022-07-10T09:39:00;98893.88;;;18.20;44.79
15884;BME280;8040;50.254;10.960;2022-07-10T09:41:44;98895.13;;;18.23;45.19
15884;BME280;8040;50.254;10.960;2022-07-10T09:44:28;98902.63;;;18.14;45.52
15884;BME280;8040;50.254;10.960;2022-07-10T09:47:59;98900.78;;;18.26;46.05
15884;BME280;8040;50.254;10.960;2022-07-10T09:50:33;98894.25;;;18.39;45.36
15884;BME280;8040;50.254;10.960;2022-07-10T09:53:18;98888.81;;;18.51;46.33
15884;BME280;8040;50.254;10.960;2022-07-10T09:56:02;98890.69;;;18.59;45.56
15884;BME280;8040;50.254;10.960;2022-07-10T09:58:46;98893.53;;;18.83;45.64
15884;BME280;8040;50.254;10.960;2022-07-10T10:04:58;98888.72;;;18.80;44.94
15884;BME280;8040;50.254;10.960;2022-07-10T10:07:44;98894.19;;;19.01;45.38
15884;BME280;8040;50.254;10.960;2022-07-10T10:10:30;98891.94;;;19.15;45.21
15884;BME280;8040;50.254;10.960;2022-07-10T10:13:19;98882.53;;;19.36;45.53
15884;BME280;8040;50.254;10.960;2022-07-10T10:16:03;98878.31;;;19.51;44.37
15884;BME280;8040;50.254;10.960;2022-07-10T10:18:51;98883.34;;;19.61;43.24
15884;BME280;8040;50.254;10.960;2022-07-10T10:21:58;98870.84;;;19.75;42.69
15884;BME280;8040;50.254;10.960;2022-07-10T10:24:50;98869.69;;;19.88;43.09
15884;BME280;8040;50.254;10.960;2022-07-10T10:27:39;98876.03;;;19.77;42.12
15884;BME280;8040;50.254;10.960;2022-07-10T10:30:24;98873.31;;;19.20;42.53
15884;BME280;8040;50.254;10.960;2022-07-10T10:36:12;98878.50;;;19.01;44.15
15884;BME280;8040;50.254;10.960;2022-07-10T10:38:59;98882.25;;;18.64;44.13
15884;BME280;8040;50.254;10.960;2022-07-10T10:44:30;98883.13;;;18.56;45.09
15884;BME280;8040;50.254;10.960;2022-07-10T10:47:15;98880.13;;;18.49;45.19
15884;BME280;8040;50.254;10.960;2022-07-10T10:50:01;98878.47;;;18.69;44.77
15884;BME280;8040;50.254;10.960;2022-07-10T10:53:01;98879.44;;;19.05;45.78
15884;BME280;8040;50.254;10.960;2022-07-10T10:58:51;98880.16;;;19.83;44.13
15884;BME280;8040;50.254;10.960;2022-07-10T11:01:36;98874.97;;;19.93;42.51
15884;BME280;8040;50.254;10.960;2022-07-10T11:04:23;98869.59;;;20.09;42.28
15884;BME280;8040;50.254;10.960;2022-07-10T11:13:15;98871.09;;;20.06;42.73
15884;BME280;8040;50.254;10.960;2022-07-10T11:15:59;98878.56;;;20.06;42.90
15884;BME280;8040;50.254;10.960;2022-07-10T11:18:43;98866.06;;;19.84;43.30
15884;BME280;8040;50.254;10.960;2022-07-10T11:21:38;98864.56;;;19.87;43.45
15884;BME280;8040;50.254;10.960;2022-07-10T11:33:40;98843.81;;;19.77;42.59
15884;BME280;8040;50.254;10.960;2022-07-10T11:39:44;98838.66;;;20.39;42.35
15884;BME280;8040;50.254;10.960;2022-07-10T11:42:46;98842.19;;;20.52;40.17
15884;BME280;8040;50.254;10.960;2022-07-10T11:45:31;98840.00;;;20.57;40.41
15884;BME280;8040;50.254;10.960;2022-07-10T11:48:16;98838.78;;;20.70;40.36
15884;BME280;8040;50.254;10.960;2022-07-10T11:51:03;98833.88;;;20.64;40.09
15884;BME280;8040;50.254;10.960;2022-07-10T11:53:59;98843.09;;;20.83;42.06
15884;BME280;8040;50.254;10.960;2022-07-10T11:56:51;98829.75;;;20.85;39.58
15884;BME280;8040;50.254;10.960;2022-07-10T11:59:36;98832.38;;;20.94;40.63
15884;BME280;8040;50.254;10.960;2022-07-10T12:02:23;98838.63;;;20.91;39.21
15884;BME280;8040;50.254;10.960;2022-07-10T12:05:28;98840.44;;;20.87;39.02
15884;BME280;8040;50.254;10.960;2022-07-10T12:08:11;98840.28;;;20.40;37.81
15884;BME280;8040;50.254;10.960;2022-07-10T12:10:56;98844.00;;;20.20;39.26
15884;BME280;8040;50.254;10.960;2022-07-10T12:13:41;98842.84;;;20.21;39.63
15884;BME280;8040;50.254;10.960;2022-07-10T12:16:25;98849.25;;;20.25;40.80
15884;BME280;8040;50.254;10.960;2022-07-10T12:19:11;98854.06;;;20.28;40.66
15884;BME280;8040;50.254;10.960;2022-07-10T12:21:55;98844.66;;;20.29;40.19
15884;BME280;8040;50.254;10.960;2022-07-10T12:24:40;98847.19;;;20.34;40.14
15884;BME280;8040;50.254;10.960;2022-07-10T12:27:40;98839.50;;;20.28;39.52
15884;BME280;8040;50.254;10.960;2022-07-10T12:30:58;98834.03;;;20.43;39.97
15884;BME280;8040;50.254;10.960;2022-07-10T12:33:35;98840.47;;;20.47;39.01
15884;BME280;8040;50.254;10.960;2022-07-10T12:36:19;98840.03;;;20.45;38.46
15884;BME280;8040;50.254;10.960;2022-07-10T12:39:04;98837.19;;;20.69;39.38
15884;BME280;8040;50.254;10.960;2022-07-10T12:41:55;98823.88;;;20.87;38.70
15884;BME280;8040;50.254;10.960;2022-07-10T12:44:41;98828.13;;;20.96;37.25
15884;BME280;8040;50.254;10.960;2022-07-10T12:50:35;98836.66;;;20.79;36.39
15884;BME280;8040;50.254;10.960;2022-07-10T12:53:19;98824.84;;;20.79;36.87
15884;BME280;8040;50.254;10.960;2022-07-10T12:56:03;98828.16;;;20.84;36.59
15884;BME280;8040;50.254;10.960;2022-07-10T12:58:47;98833.47;;;20.77;36.46
15884;BME280;8040;50.254;10.960;2022-07-10T13:01:41;98831.16;;;20.79;36.58
15884;BME280;8040;50.254;10.960;2022-07-10T13:07:42;98838.88;;;20.74;36.91
15884;BME280;8040;50.254;10.960;2022-07-10T13:10:26;98846.03;;;20.63;37.33
15884;BME280;8040;50.254;10.960;2022-07-10T13:13:11;98838.16;;;20.49;37.54
15884;BME280;8040;50.254;10.960;2022-07-10T13:15:55;98843.91;;;20.56;37.82
15884;BME280;8040;50.254;10.960;2022-07-10T13:18:41;98830.97;;;20.72;38.35
15884;BME280;8040;50.254;10.960;2022-07-10T13:21:26;98832.38;;;20.94;38.77
15884;BME280;8040;50.254;10.960;2022-07-10T13:24:11;98832.88;;;21.11;37.19
15884;BME280;8040;50.254;10.960;2022-07-10T13:26:56;98801.97;;;21.06;37.31
15884;BME280;8040;50.254;10.960;2022-07-10T13:29:50;98813.16;;;20.97;36.06
15884;BME280;8040;50.254;10.960;2022-07-10T13:32:34;98811.25;;;20.86;36.59
15884;BME280;8040;50.254;10.960;2022-07-10T13:35:19;98811.94;;;20.83;35.86
15884;BME280;8040;50.254;10.960;2022-07-10T13:38:03;98817.66;;;20.74;36.29
15884;BME280;8040;50.254;10.960;2022-07-10T13:40:48;98803.38;;;20.72;36.99
15884;BME280;8040;50.254;10.960;2022-07-10T13:43:32;98783.53;;;20.94;38.87
15884;BME280;8040;50.254;10.960;2022-07-10T13:46:16;98806.25;;;21.19;36.41
15884;BME280;8040;50.254;10.960;2022-07-10T13:49:00;98814.34;;;21.27;36.25
15884;BME280;8040;50.254;10.960;2022-07-10T13:51:45;98810.50;;;21.16;35.22
15884;BME280;8040;50.254;10.960;2022-07-10T13:54:29;98808.75;;;21.08;35.15
15884;BME280;8040;50.254;10.960;2022-07-10T13:57:13;98804.38;;;21.07;36.59
15884;BME280;8040;50.254;10.960;2022-07-10T13:59:57;98812.47;;;21.00;35.80
15884;BME280;8040;50.254;10.960;2022-07-10T14:02:41;98803.56;;;21.07;36.46
15884;BME280;8040;50.254;10.960;2022-07-10T14:05:25;98799.47;;;21.01;35.79
15884;BME280;8040;50.254;10.960;2022-07-10T14:11:31;98792.38;;;21.15;35.07
15884;BME280;8040;50.254;10.960;2022-07-10T14:14:16;98792.53;;;21.22;36.33
15884;BME280;8040;50.254;10.960;2022-07-10T14:17:00;98792.66;;;21.41;35.10
15884;BME280;8040;50.254;10.960;2022-07-10T14:19:44;98797.28;;;21.37;34.57
15884;BME280;8040;50.254;10.960;2022-07-10T14:22:28;98800.97;;;21.14;34.44
15884;BME280;8040;50.254;10.960;2022-07-10T14:25:15;98791.94;;;20.86;35.32
15884;BME280;8040;50.254;10.960;2022-07-10T14:28:04;98791.56;;;20.72;35.68
15884;BME280;8040;50.254;10.960;2022-07-10T14:30:48;98788.44;;;20.73;35.38
15884;BME280;8040;50.254;10.960;2022-07-10T14:33:34;98793.84;;;20.70;35.34
15884;BME280;8040;50.254;10.960;2022-07-10T14:36:19;98801.53;;;20.76;36.26
15884;BME280;8040;50.254;10.960;2022-07-10T14:39:03;98795.00;;;20.96;35.20
15884;BME280;8040;50.254;10.960;2022-07-10T14:41:47;98792.97;;;20.93;34.54
15884;BME280;8040;50.254;10.960;2022-07-10T14:44:35;98793.59;;;21.02;34.79
15884;BME280;8040;50.254;10.960;2022-07-10T14:47:19;98791.03;;;21.09;35.80
15884;BME280;8040;50.254;10.960;2022-07-10T14:53:25;98781.16;;;21.24;35.16
15884;BME280;8040;50.254;10.960;2022-07-10T14:56:09;98785.25;;;21.45;35.04
15884;BME280;8040;50.254;10.960;2022-07-10T14:58:54;98789.59;;;21.46;34.85
15884;BME280;8040;50.254;10.960;2022-07-10T15:01:38;98785.88;;;21.54;35.66
15884;BME280;8040;50.254;10.960;2022-07-10T15:04:22;98782.94;;;21.63;34.86
15884;BME280;8040;50.254;10.960;2022-07-10T15:07:05;98778.47;;;21.58;34.50
15884;BME280;8040;50.254;10.960;2022-07-10T15:09:53;98782.66;;;21.68;35.20
15884;BME280;8040;50.254;10.960;2022-07-10T15:12:38;98790.47;;;21.81;34.84
15884;BME280;8040;50.254;10.960;2022-07-10T15:15:22;98770.78;;;21.83;33.96
15884;BME280;8040;50.254;10.960;2022-07-10T15:18:10;98784.91;;;21.97;34.00
15884;BME280;8040;50.254;10.960;2022-07-10T15:20:54;98792.97;;;21.86;34.41
15884;BME280;8040;50.254;10.960;2022-07-10T15:23:39;98789.97;;;21.60;34.19
15884;BME280;8040;50.254;10.960;2022-07-10T15:26:22;98775.69;;;21.58;34.35
15884;BME280;8040;50.254;10.960;2022-07-10T15:29:07;98771.59;;;21.52;34.60
15884;BME280;8040;50.254;10.960;2022-07-10T15:31:51;98778.72;;;21.53;34.56
15884;BME280;8040;50.254;10.960;2022-07-10T15:34:35;98775.78;;;21.62;35.30
15884;BME280;8040;50.254;10.960;2022-07-10T15:37:19;98774.91;;;21.58;35.20
15884;BME280;8040;50.254;10.960;2022-07-10T15:40:06;98772.16;;;21.58;34.74
15884;BME280;8040;50.254;10.960;2022-07-10T15:42:51;98776.63;;;21.31;34.93
15884;BME280;8040;50.254;10.960;2022-07-10T15:45:36;98781.50;;;21.22;35.53
15884;BME280;8040;50.254;10.960;2022-07-10T15:48:20;98774.47;;;21.25;36.20
15884;BME280;8040;50.254;10.960;2022-07-10T15:51:04;98769.34;;;21.23;36.00
15884;BME280;8040;50.254;10.960;2022-07-10T15:53:48;98778.03;;;21.25;35.92
15884;BME280;8040;50.254;10.960;2022-07-10T15:56:33;98779.47;;;21.19;36.11
15884;BME280;8040;50.254;10.960;2022-07-10T15:59:16;98782.31;;;21.23;36.83